TimeCST,TemperatureF,Dew PointF,Humidity,Sea Level PressureIn,VisibilityMPH,Wind Direction,Wind SpeedMPH,Gust SpeedMPH,PrecipitationIn,Events,Conditions,WindDirDegrees,DateUTC
12:15 AM,17.6,3.2,53,30.13,10.0,SSE,4.6,-,N/A,,Clear,150,2013-01-25 06:15:00
12:35 AM,17.6,5.0,58,30.13,10.0,SSE,3.5,-,N/A,,Clear,150,2013-01-25 06:35:00
12:55 AM,15.8,3.2,58,30.12,10.0,SSE,5.8,-,N/A,,Clear,160,2013-01-25 06:55:00
1:15 AM,15.8,5.0,62,30.11,10.0,South,3.5,-,N/A,,Clear,170,2013-01-25 07:15:00
1:35 AM,17.6,6.8,63,30.12,10.0,Calm,Calm,-,N/A,,Clear,0,2013-01-25 07:35:00
1:55 AM,17.6,6.8,63,30.11,10.0,Calm,Calm,-,N/A,,Clear,0,2013-01-25 07:55:00
2:15 AM,17.6,5.0,58,30.12,10.0,WSW,3.5,-,N/A,,Clear,240,2013-01-25 08:15:00
2:35 AM,17.6,6.8,63,30.11,10.0,SW,3.5,-,N/A,,Partly Cloudy,220,2013-01-25 08:35:00
2:55 AM,17.6,6.8,63,30.11,10.0,SW,4.6,-,N/A,,Clear,230,2013-01-25 08:55:00
3:15 AM,17.6,6.8,63,30.11,10.0,WSW,5.8,-,N/A,,Clear,240,2013-01-25 09:15:00
3:35 AM,17.6,6.8,63,30.09,10.0,WSW,5.8,-,N/A,,Clear,240,2013-01-25 09:35:00
3:55 AM,17.6,6.8,63,30.09,10.0,WSW,6.9,-,N/A,,Clear,250,2013-01-25 09:55:00
4:15 AM,15.8,6.8,68,30.09,10.0,West,5.8,-,N/A,,Clear,260,2013-01-25 10:15:00
4:35 AM,17.6,8.6,68,30.09,10.0,West,10.4,-,N/A,,Clear,260,2013-01-25 10:35:00
4:55 AM,17.6,8.6,68,30.09,10.0,West,11.5,-,N/A,,Clear,260,2013-01-25 10:55:00
5:15 AM,17.6,6.8,63,30.09,10.0,West,9.2,-,N/A,,Clear,260,2013-01-25 11:15:00
5:35 AM,15.8,8.6,73,30.10,10.0,West,8.1,-,N/A,,Clear,260,2013-01-25 11:35:00
5:55 AM,15.8,8.6,73,30.10,10.0,West,5.8,-,N/A,,Clear,280,2013-01-25 11:55:00
6:15 AM,15.8,6.8,68,30.11,10.0,West,4.6,-,N/A,,Clear,280,2013-01-25 12:15:00
6:35 AM,15.8,8.6,73,30.11,10.0,Calm,Calm,-,N/A,,Clear,0,2013-01-25 12:35:00
6:55 AM,12.2,3.2,67,30.12,10.0,West,3.5,-,N/A,,Clear,260,2013-01-25 12:55:00
7:35 AM,15.8,8.6,73,30.13,10.0,WSW,5.8,-,N/A,,Clear,240,2013-01-25 13:35:00
7:55 AM,15.8,8.6,73,30.13,10.0,West,4.6,-,N/A,,Clear,260,2013-01-25 13:55:00
8:15 AM,17.6,10.4,73,30.13,10.0,West,3.5,-,N/A,,Clear,270,2013-01-25 14:15:00
8:35 AM,17.6,10.4,73,30.14,10.0,West,4.6,-,N/A,,Clear,270,2013-01-25 14:35:00
8:55 AM,19.4,12.2,74,30.14,10.0,WSW,4.6,-,N/A,,Clear,240,2013-01-25 14:55:00
9:15 AM,21.2,14.0,74,30.15,10.0,West,4.6,-,N/A,,Clear,280,2013-01-25 15:15:00
9:35 AM,24.8,15.8,69,30.15,10.0,West,3.5,-,N/A,,Clear,270,2013-01-25 15:35:00
9:55 AM,28.4,17.6,64,30.16,10.0,West,5.8,-,N/A,,Clear,270,2013-01-25 15:55:00
10:15 AM,30.2,17.6,60,30.17,10.0,West,6.9,-,N/A,,Clear,270,2013-01-25 16:15:00
10:35 AM,33.8,19.4,56,30.18,10.0,West,6.9,-,N/A,,Clear,260,2013-01-25 16:35:00
10:55 AM,37.4,21.2,52,30.19,10.0,West,6.9,-,N/A,,Clear,270,2013-01-25 16:55:00
11:15 AM,39.2,23.0,52,30.20,10.0,West,6.9,-,N/A,,Clear,280,2013-01-25 17:15:00
11:35 AM,42.8,24.8,49,30.19,10.0,West,8.1,-,N/A,,Clear,280,2013-01-25 17:35:00
11:55 AM,44.6,24.8,46,30.18,10.0,WSW,5.8,-,N/A,,Clear,250,2013-01-25 17:55:00
12:15 PM,46.4,23.0,40,30.17,10.0,NW,12.7,18.4,N/A,,Clear,320,2013-01-25 18:15:00
12:35 PM,48.2,23.0,37,30.16,10.0,NW,11.5,-,N/A,,Clear,320,2013-01-25 18:35:00
12:55 PM,48.2,23.0,37,30.16,10.0,WNW,11.5,-,N/A,,Clear,300,2013-01-25 18:55:00
1:15 PM,48.2,21.2,34,30.14,10.0,North,10.4,17.3,N/A,,Clear,350,2013-01-25 19:15:00
1:35 PM,48.2,21.2,34,30.14,10.0,NNW,9.2,-,N/A,,Clear,340,2013-01-25 19:35:00
1:55 PM,48.2,21.2,34,30.14,10.0,NNW,9.2,-,N/A,,Clear,340,2013-01-25 19:55:00
2:15 PM,50.0,21.2,32,30.13,10.0,NNW,8.1,-,N/A,,Clear,330,2013-01-25 20:15:00
2:35 PM,50.0,21.2,32,30.13,10.0,NW,12.7,-,N/A,,Clear,320,2013-01-25 20:35:00
2:55 PM,50.0,21.2,32,30.13,10.0,NNW,8.1,-,N/A,,Clear,340,2013-01-25 20:55:00
3:15 PM,50.0,21.2,32,30.13,10.0,NW,5.8,-,N/A,,Clear,320,2013-01-25 21:15:00
3:35 PM,50.0,21.2,32,30.14,10.0,WNW,9.2,-,N/A,,Clear,300,2013-01-25 21:35:00
3:55 PM,50.0,21.2,32,30.14,10.0,WNW,9.2,-,N/A,,Clear,300,2013-01-25 21:55:00
4:15 PM,50.0,21.2,32,30.15,10.0,WNW,6.9,-,N/A,,Clear,300,2013-01-25 22:15:00
4:35 PM,48.2,21.2,34,30.15,10.0,NW,4.6,-,N/A,,Clear,320,2013-01-25 22:35:00
4:55 PM,48.2,21.2,34,30.15,10.0,NNE,3.5,-,N/A,,Clear,20,2013-01-25 22:55:00
5:15 PM,44.6,21.2,39,30.15,10.0,ENE,6.9,-,N/A,,Clear,60,2013-01-25 23:15:00
5:35 PM,39.2,19.4,45,30.15,10.0,ENE,5.8,-,N/A,,Clear,60,2013-01-25 23:35:00
5:55 PM,35.6,19.4,52,30.15,10.0,East,4.6,-,N/A,,Clear,80,2013-01-25 23:55:00
6:15 PM,35.6,21.2,56,30.16,10.0,East,6.9,-,N/A,,Clear,80,2013-01-26 00:15:00
6:35 PM,33.8,19.4,56,30.16,10.0,ESE,5.8,-,N/A,,Clear,110,2013-01-26 00:35:00
6:55 PM,35.6,21.2,56,30.18,10.0,ESE,3.5,-,N/A,,Clear,110,2013-01-26 00:55:00
7:15 PM,33.8,21.2,60,30.18,10.0,East,4.6,-,N/A,,Clear,100,2013-01-26 01:15:00
7:35 PM,32.0,21.2,64,30.18,10.0,SE,4.6,-,N/A,,Clear,130,2013-01-26 01:35:00
7:55 PM,30.2,19.4,64,30.19,10.0,ESE,4.6,-,N/A,,Clear,120,2013-01-26 01:55:00
8:15 PM,28.4,19.4,69,30.20,10.0,East,3.5,-,N/A,,Clear,90,2013-01-26 02:15:00
8:35 PM,26.6,19.4,74,30.19,10.0,ENE,6.9,-,N/A,,Clear,70,2013-01-26 02:35:00
8:55 PM,26.6,19.4,74,30.19,10.0,East,3.5,-,N/A,,Clear,100,2013-01-26 02:55:00
9:15 PM,26.6,19.4,74,30.19,10.0,East,4.6,-,N/A,,Clear,80,2013-01-26 03:15:00
9:35 PM,26.6,19.4,74,30.19,10.0,ESE,3.5,-,N/A,,Clear,110,2013-01-26 03:35:00
9:55 PM,26.6,19.4,74,30.19,10.0,East,3.5,-,N/A,,Clear,80,2013-01-26 03:55:00
10:15 PM,24.8,19.4,80,30.19,10.0,East,5.8,-,N/A,,Clear,90,2013-01-26 04:15:00
10:35 PM,26.6,19.4,74,30.19,10.0,East,6.9,-,N/A,,Clear,90,2013-01-26 04:35:00
10:55 PM,26.6,19.4,74,30.20,10.0,East,8.1,-,N/A,,Clear,90,2013-01-26 04:55:00
11:15 PM,26.6,19.4,74,30.21,10.0,ENE,8.1,-,N/A,,Clear,70,2013-01-26 05:15:00
11:35 PM,24.8,19.4,80,30.22,10.0,East,8.1,-,N/A,,Clear,80,2013-01-26 05:35:00
11:55 PM,24.8,17.6,74,30.22,10.0,East,6.9,-,N/A,,Clear,90,2013-01-26 05:55:00